Aérodrome :
LOGIN :

S'inscrire | Disclaimer

   EN    FR    IT 

 










Légende :    VFR   VFR Marginal   IFR   IFR Intensif   IFR Très Intensif
Visi : 
Plafond : 
>= 8 km
>= 3000ft
5 à 8 km
1000 à 3000 ft
1500m à 5 km
500 à 1000 ft
800 à 1500m
200 à 500 ft
< 800m
< 200 ft
Symboles :   Orages  Brouillard  Fortes neiges  Fortes précipitations  Vent > 20 kt
SIGMETs :   Divers  Orages  Givrage  Turbulence  Onde Orograph.  Cendres Volcan.






- Altitude de l'aérodrome : 10 ft
- Code IATA : AAL


EKYT - Aalborg

DERNIER METAR :
  • 301850Z AUTO 36004KT 9999 NCD 02/M09 Q1030

METARs EXPIRÉS :
  • 301820Z AUTO 03001KT 9999 NCD 03/M09 Q1030
  • 301750Z AUTO 01004KT 9999 NCD 03/M09 Q1030
  • 301720Z AUTO 03007KT 9999 NCD 04/M09 Q1029
  • 301650Z 03009KT CAVOK 05/M09 Q1029
  • 301620Z 03013KT CAVOK 05/M10 Q1029

TAF TAF EKYT
Valide du 30 à 15h jusqu'au 31 à 15h UTC


301408Z 3015/3115 03012KT 9999 FEW060
BECMG 3022/3024 32005KT
BECMG 3101/3103 VRB03KT
BECMG 3106/3109 25015KT
TEMPO 3110/3115 27017G28KT



MET'MAP, la Météo Aéronautique d'un coup d'oeil ! - Copyright ORBIFLY Décembre 2007 - Disclaimer

ORBIFLY MET'MAP TEAM :

Programmation & Développement : Alexandra Zaïnal
Sur une idée originale de : Baudouin d'Aumeries
Assistance à la programmation : Marc-Olivier Méhu
Soutien technique & logistique : Manuel Goepfert

Contact : metmap@orbifly.com




SOURCES & CREDITS :

   NOAA